createdAt,value
2018-06-11T00:01:31.846Z,81.88
2018-06-11T00:04:00.357Z,82.08
2018-06-11T00:06:28.869Z,82.15
2018-06-11T00:08:57.530Z,81.82
2018-06-11T00:11:25.993Z,81.85
2018-06-11T00:13:54.453Z,82.79
2018-06-11T00:16:22.961Z,83.08
2018-06-11T00:18:51.489Z,83.21
2018-06-11T00:21:20.038Z,83.37
2018-06-11T00:23:48.555Z,82.74
2018-06-11T00:26:17.170Z,82.55
2018-06-11T00:28:45.761Z,82.45
2018-06-11T00:31:14.330Z,82.79
2018-06-11T00:33:42.818Z,82.89
2018-06-11T00:36:11.314Z,82.65
2018-06-11T00:38:39.789Z,82.92
2018-06-11T00:41:08.685Z,83.08
2018-06-11T00:43:37.182Z,83.20
2018-06-11T00:46:05.698Z,83.45
2018-06-11T00:48:34.214Z,83.31
2018-06-11T00:51:02.761Z,83.59
2018-06-11T00:53:31.232Z,83.57
2018-06-11T00:56:07.169Z,83.45
2018-06-11T00:58:35.775Z,82.84
2018-06-11T01:01:05.233Z,83.73
2018-06-11T01:03:33.736Z,83.23
2018-06-11T01:06:02.222Z,83.59
2018-06-11T01:08:30.728Z,83.56
2018-06-11T01:10:59.274Z,83.20
2018-06-11T01:13:27.756Z,83.42
2018-06-11T01:15:56.222Z,83.96
2018-06-11T01:18:24.779Z,84.16
2018-06-11T01:20:53.254Z,84.07
2018-06-11T01:23:21.830Z,83.76
2018-06-11T01:25:50.340Z,84.04
2018-06-11T01:28:18.840Z,84.78
2018-06-11T01:30:47.353Z,84.74
2018-06-11T01:33:15.939Z,84.51
2018-06-11T01:35:44.421Z,85.15
2018-06-11T01:38:13.033Z,85.14
2018-06-11T01:40:41.502Z,85.28
2018-06-11T01:43:09.992Z,85.63
2018-06-11T01:45:38.492Z,86.17
2018-06-11T01:48:06.956Z,86.20
2018-06-11T01:50:35.874Z,85.75
2018-06-11T01:53:04.371Z,85.59
2018-06-11T01:55:32.832Z,86.33
2018-06-11T01:58:01.342Z,86.70
2018-06-11T02:00:29.810Z,87.06
2018-06-11T02:02:58.260Z,86.81
2018-06-11T02:05:27.165Z,86.99
2018-06-11T02:07:55.638Z,86.84
2018-06-11T02:10:24.126Z,87.05
2018-06-11T02:12:52.833Z,86.96
2018-06-11T02:15:21.349Z,87.17
2018-06-11T02:17:49.834Z,87.19
2018-06-11T02:20:18.814Z,87.03
2018-06-11T02:22:47.310Z,86.74
2018-06-11T02:25:15.778Z,86.75
2018-06-11T02:27:44.304Z,86.24
2018-06-11T02:30:12.761Z,86.21
2018-06-11T02:32:41.259Z,86.53
2018-06-11T02:35:09.753Z,86.46
2018-06-11T02:37:39.431Z,86.27
2018-06-11T02:40:07.965Z,86.52
2018-06-11T02:42:36.630Z,86.55
2018-06-11T02:45:06.085Z,86.47
2018-06-11T02:47:34.795Z,86.65
2018-06-11T02:50:03.313Z,86.60
2018-06-11T02:52:31.859Z,86.53
2018-06-11T02:55:00.340Z,86.21
2018-06-11T02:57:28.837Z,86.57
2018-06-11T02:59:57.379Z,86.61
2018-06-11T03:02:25.863Z,86.48
2018-06-11T03:04:54.394Z,86.46
2018-06-11T03:07:22.890Z,86.67
2018-06-11T03:09:51.383Z,86.75
2018-06-11T03:12:20.415Z,86.55
2018-06-11T03:14:48.916Z,86.47
2018-06-11T03:17:17.447Z,86.69
2018-06-11T03:19:45.959Z,86.90
2018-06-11T03:22:14.455Z,87.13
2018-06-11T03:24:42.965Z,86.85
2018-06-11T03:27:11.584Z,86.88
2018-06-11T03:29:40.075Z,87.05
2018-06-11T03:32:08.567Z,86.69
2018-06-11T03:34:37.082Z,86.94
2018-06-11T03:37:05.630Z,87.00
2018-06-11T03:39:34.167Z,86.68
2018-06-11T03:42:02.659Z,86.99
2018-06-11T03:44:31.220Z,86.69
2018-06-11T03:46:59.798Z,86.53
2018-06-11T03:49:28.286Z,86.28
2018-06-11T03:51:56.798Z,86.28
2018-06-11T03:54:25.315Z,86.40
2018-06-11T03:56:53.883Z,86.14
2018-06-11T03:59:22.357Z,86.29
2018-06-11T04:01:50.867Z,86.03
2018-06-11T04:04:19.443Z,86.13
2018-06-11T04:06:47.998Z,86.35
2018-06-11T04:09:16.553Z,86.04
2018-06-11T04:11:45.100Z,85.90
2018-06-11T04:14:13.656Z,85.82
2018-06-11T04:16:42.406Z,86.18
2018-06-11T04:19:10.876Z,84.47
2018-06-11T04:21:39.479Z,83.56
2018-06-11T04:24:08.070Z,84.43
2018-06-11T04:26:36.553Z,84.55
2018-06-11T04:29:05.135Z,83.34
2018-06-11T04:31:33.689Z,83.76
2018-06-11T04:34:02.328Z,83.34
2018-06-11T04:36:30.817Z,81.86
2018-06-11T04:38:59.322Z,84.43
2018-06-11T04:41:27.981Z,80.10
2018-06-11T04:43:56.506Z,82.36
2018-06-11T04:46:25.006Z,80.20
2018-06-11T04:48:53.566Z,79.30
2018-06-11T04:51:22.054Z,76.52
2018-06-11T04:53:50.550Z,88.69
2018-06-11T04:56:19.108Z,84.04
2018-06-11T04:58:47.704Z,80.01
2018-06-11T05:01:16.354Z,69.81
2018-06-11T05:03:44.907Z,68.46
2018-06-11T05:06:13.423Z,68.82
2018-06-11T05:08:42.122Z,64.08
2018-06-11T05:11:10.632Z,63.80
2018-06-11T05:13:39.149Z,63.61
2018-06-11T05:16:07.674Z,60.56
2018-06-11T05:18:36.176Z,61.15
2018-06-11T05:21:05.109Z,60.91
2018-06-11T05:23:33.665Z,61.18
2018-06-11T05:26:02.164Z,61.96
2018-06-11T05:33:19.869Z,61.17
2018-06-11T05:35:49.427Z,59.84
2018-06-11T05:38:18.339Z,59.16
2018-06-11T05:40:46.830Z,58.58
2018-06-11T05:43:15.305Z,58.13
2018-06-11T05:45:43.846Z,58.71
2018-06-11T05:48:12.446Z,59.74
2018-06-11T05:50:40.928Z,57.11
2018-06-11T05:53:09.867Z,59.88
2018-06-11T05:55:38.406Z,60.08
2018-06-11T05:58:06.959Z,59.40
2018-06-11T06:00:35.510Z,61.35
2018-06-11T06:03:04.086Z,61.96
2018-06-11T06:05:32.631Z,61.50
2018-06-11T06:08:01.270Z,61.99
2018-06-11T06:10:29.754Z,61.86
2018-06-11T06:12:58.319Z,61.01
2018-06-11T06:15:27.091Z,60.90
2018-06-11T06:17:55.596Z,63.37
2018-06-11T06:20:24.096Z,61.71
2018-06-11T06:22:52.614Z,63.06
2018-06-11T06:25:21.211Z,61.04
2018-06-11T06:27:49.753Z,62.66
2018-06-11T06:30:18.250Z,62.85
2018-06-11T06:32:46.745Z,61.63
2018-06-11T06:35:15.247Z,63.88
2018-06-11T06:37:43.781Z,64.51
2018-06-11T06:40:12.659Z,63.84
2018-06-11T06:42:41.142Z,65.41
2018-06-11T06:45:09.621Z,64.55
2018-06-11T06:47:38.182Z,65.14
2018-06-11T06:50:06.719Z,66.00
2018-06-11T06:52:35.222Z,64.23
2018-06-11T06:55:03.948Z,63.19
2018-06-11T06:57:32.462Z,62.44
2018-06-11T07:00:00.943Z,60.98
2018-06-11T07:02:29.430Z,61.28
2018-06-11T07:04:57.925Z,60.90
2018-06-11T07:07:26.412Z,58.94
2018-06-11T07:09:54.954Z,59.52
2018-06-11T07:12:23.910Z,58.84
2018-06-11T07:14:52.402Z,58.62
2018-06-11T07:17:20.954Z,58.65
2018-06-11T07:19:49.517Z,62.19
2018-06-11T07:22:18.031Z,63.68
2018-06-11T07:24:46.527Z,63.21
2018-06-11T07:27:15.168Z,63.73
2018-06-11T07:29:43.738Z,63.36
2018-06-11T07:32:12.246Z,63.41
2018-06-11T07:34:40.753Z,63.44
2018-06-11T07:37:09.317Z,62.51
2018-06-11T07:39:37.899Z,63.28
2018-06-11T07:42:06.501Z,63.29
2018-06-11T07:44:35.044Z,62.91
2018-06-11T07:47:03.841Z,62.32
2018-06-11T07:49:32.390Z,61.61
2018-06-11T07:52:00.868Z,63.24
2018-06-11T07:54:29.403Z,61.74
2018-06-11T07:56:58.043Z,62.27
2018-06-11T07:59:26.566Z,61.99
2018-06-11T08:01:55.057Z,61.47
2018-06-11T08:04:23.599Z,61.15
2018-06-11T08:06:52.209Z,61.76
2018-06-11T08:09:20.715Z,61.96
2018-06-11T08:11:50.247Z,62.53
2018-06-11T08:14:18.780Z,62.70
2018-06-11T08:16:47.305Z,61.82
2018-06-11T08:19:16.240Z,61.44
2018-06-11T08:21:44.778Z,61.98
2018-06-11T08:24:13.313Z,60.26
2018-06-11T08:26:41.841Z,61.06
2018-06-11T08:29:10.392Z,60.40
2018-06-11T08:31:38.903Z,62.43
2018-06-11T08:34:07.430Z,59.98
2018-06-11T08:36:36.028Z,60.20
2018-06-11T08:39:06.759Z,60.08
2018-06-11T08:41:35.255Z,61.32
2018-06-11T08:44:04.201Z,60.41
2018-06-11T08:46:32.841Z,59.39
2018-06-11T08:49:01.338Z,59.49
2018-06-11T08:51:30.089Z,59.72
2018-06-11T08:53:58.655Z,59.11
2018-06-11T08:56:27.234Z,58.67
2018-06-11T08:58:55.799Z,57.80
2018-06-11T09:01:24.314Z,58.79
2018-06-11T09:03:52.827Z,57.18
2018-06-11T09:06:21.363Z,57.47
2018-06-11T09:08:49.929Z,56.58
2018-06-11T09:11:18.421Z,56.66
2018-06-11T09:13:46.966Z,58.11
2018-06-11T09:16:15.936Z,57.11
2018-06-11T09:18:44.449Z,58.67
2018-06-11T09:21:12.954Z,58.08
2018-06-11T09:23:41.452Z,59.89
2018-06-11T09:26:09.946Z,58.17
2018-06-11T09:28:38.459Z,58.14
2018-06-11T09:31:07.028Z,59.93
2018-06-11T09:33:35.906Z,60.12
2018-06-11T09:36:04.495Z,59.53
2018-06-11T09:38:32.998Z,59.34
2018-06-11T09:41:01.564Z,57.96
2018-06-11T09:43:30.066Z,58.96
2018-06-11T09:45:58.578Z,61.50
2018-06-11T09:48:27.057Z,60.11
2018-06-11T09:50:55.627Z,60.25
2018-06-11T09:53:24.161Z,60.17
2018-06-11T09:55:53.008Z,60.51
2018-06-11T09:58:21.739Z,60.70
2018-06-11T10:00:50.402Z,60.09
2018-06-11T10:03:18.908Z,60.46
2018-06-11T10:05:47.394Z,60.24
2018-06-11T10:08:16.075Z,59.64
2018-06-11T10:10:44.558Z,60.42
2018-06-11T10:13:13.066Z,59.81
2018-06-11T10:15:41.661Z,59.04
2018-06-11T10:18:10.184Z,59.34
2018-06-11T10:20:38.716Z,57.33
2018-06-11T10:23:07.439Z,56.71
2018-06-11T10:25:35.937Z,56.21
2018-06-11T10:28:04.498Z,56.13
2018-06-11T10:30:33.127Z,56.51
2018-06-11T10:33:01.619Z,56.12
2018-06-11T10:35:30.145Z,57.00
2018-06-11T10:37:58.683Z,57.23
2018-06-11T10:40:27.174Z,55.65
2018-06-11T10:42:55.678Z,55.52
2018-06-11T10:45:24.166Z,55.94
2018-06-11T10:47:52.898Z,55.29
2018-06-11T10:50:21.367Z,54.60
2018-06-11T10:52:49.971Z,54.39
2018-06-11T10:55:18.695Z,56.38
2018-06-11T10:57:47.403Z,54.73
2018-06-11T11:00:15.899Z,54.89
2018-06-11T11:02:44.581Z,55.07
2018-06-11T11:05:13.101Z,54.74
2018-06-11T11:07:41.607Z,54.47
2018-06-11T11:10:10.119Z,53.91
2018-06-11T11:12:38.813Z,54.32
2018-06-11T11:15:07.487Z,53.51
2018-06-11T11:17:35.994Z,55.46
2018-06-11T11:20:04.754Z,55.37
2018-06-11T11:22:33.787Z,56.12
2018-06-11T11:25:02.721Z,55.28
2018-06-11T11:27:31.276Z,55.96
2018-06-11T11:29:59.772Z,56.55
2018-06-11T11:32:28.272Z,55.21
2018-06-11T11:34:56.793Z,58.11
2018-06-11T11:37:25.282Z,56.19
2018-06-11T11:39:53.961Z,56.18
2018-06-11T11:42:22.447Z,57.13
2018-06-11T11:44:50.930Z,54.82
2018-06-11T11:47:19.647Z,55.85
2018-06-11T11:49:48.147Z,56.50
2018-06-11T11:52:16.623Z,55.93
2018-06-11T11:54:45.773Z,56.57
2018-06-11T11:57:15.758Z,56.94
2018-06-11T11:59:44.370Z,56.80
2018-06-11T12:02:12.859Z,56.87
2018-06-11T12:04:41.326Z,56.66
2018-06-11T12:07:09.829Z,56.02
2018-06-11T12:09:38.322Z,55.96
2018-06-11T12:12:06.880Z,56.72
2018-06-11T12:14:35.420Z,57.39
2018-06-11T12:17:04.493Z,57.23
2018-06-11T12:19:33.177Z,56.80
2018-06-11T12:22:01.654Z,57.64
2018-06-11T12:24:30.133Z,56.47
2018-06-11T12:26:59.218Z,56.96
2018-06-11T12:29:27.850Z,56.63
2018-06-11T12:31:56.358Z,56.17
2018-06-11T12:34:24.842Z,56.56
2018-06-11T12:36:53.402Z,56.94
2018-06-11T12:39:21.877Z,56.95
2018-06-11T12:41:50.562Z,57.73
2018-06-11T12:44:19.158Z,58.66
2018-06-11T12:46:47.641Z,58.04
2018-06-11T12:49:16.150Z,58.84
2018-06-11T12:51:44.643Z,58.76
2018-06-11T12:54:13.682Z,56.44
2018-06-11T12:56:42.263Z,55.86
2018-06-11T12:59:10.733Z,56.83
2018-06-11T13:01:39.259Z,57.47
2018-06-11T13:04:07.871Z,57.00
2018-06-11T13:06:36.622Z,56.49
2018-06-11T13:09:07.456Z,56.17
2018-06-11T13:11:36.026Z,57.22
2018-06-11T13:14:04.666Z,57.19
2018-06-11T13:16:33.187Z,57.07
2018-06-11T13:19:01.823Z,56.19
2018-06-11T13:21:30.555Z,57.35
2018-06-11T13:23:59.043Z,57.11
2018-06-11T13:26:27.518Z,57.53
2018-06-11T13:28:56.117Z,57.79
2018-06-11T13:31:24.614Z,56.95
2018-06-11T13:33:53.540Z,57.01
2018-06-11T13:36:22.036Z,57.88
2018-06-11T13:38:50.553Z,57.09
2018-06-11T13:41:19.525Z,57.08
2018-06-11T13:43:48.045Z,57.61
2018-06-11T13:46:16.523Z,58.13
2018-06-11T13:48:45.071Z,57.00
2018-06-11T13:51:13.566Z,56.98
2018-06-11T13:53:42.079Z,56.90
2018-06-11T13:56:11.105Z,56.72
2018-06-11T13:58:39.646Z,57.14
2018-06-11T14:01:08.250Z,57.47
2018-06-11T14:03:36.761Z,57.17
2018-06-11T14:06:05.739Z,56.42
2018-06-11T14:08:34.280Z,57.42
2018-06-11T14:11:02.766Z,57.50
2018-06-11T14:13:31.297Z,58.20
2018-06-11T14:15:59.819Z,57.96
2018-06-11T14:18:28.336Z,56.72
2018-06-11T14:20:56.883Z,57.00
2018-06-11T14:23:25.431Z,57.17
2018-06-11T14:25:53.969Z,56.58
2018-06-11T14:28:22.461Z,55.23
2018-06-11T14:30:50.949Z,55.78
2018-06-11T14:33:20.439Z,57.55
2018-06-11T14:35:48.992Z,57.25
2018-06-11T14:38:17.506Z,58.13
2018-06-11T14:40:46.124Z,58.39
2018-06-11T14:43:14.703Z,57.01
2018-06-11T14:45:43.675Z,56.58
2018-06-11T14:48:12.296Z,57.65
2018-06-11T14:50:40.847Z,57.39
2018-06-11T14:53:09.432Z,57.76
2018-06-11T14:55:38.072Z,57.18
2018-06-11T14:58:06.814Z,57.77
2018-06-11T15:00:35.629Z,57.39
2018-06-11T15:03:04.243Z,57.61
2018-06-11T15:05:32.739Z,57.32
2018-06-11T15:08:01.245Z,56.50
2018-06-11T15:10:29.756Z,55.97
2018-06-11T15:12:58.310Z,55.25
2018-06-11T15:15:26.969Z,56.63
2018-06-11T15:17:55.474Z,56.96
2018-06-11T15:20:23.995Z,55.32
2018-06-11T15:22:52.592Z,55.60
2018-06-11T15:25:21.099Z,55.87
2018-06-11T15:27:49.599Z,57.91
2018-06-11T15:30:18.125Z,56.46
2018-06-11T15:32:46.614Z,57.00
2018-06-11T15:35:15.176Z,56.62
2018-06-11T15:37:43.680Z,56.38
2018-06-11T15:40:12.243Z,55.88
2018-06-11T15:42:40.798Z,55.06
2018-06-11T15:45:09.325Z,56.24
2018-06-11T15:47:37.827Z,55.11
2018-06-11T15:50:06.498Z,56.05
2018-06-11T15:52:35.029Z,56.52
2018-06-11T15:55:03.510Z,56.24
2018-06-11T15:57:32.486Z,55.63
2018-06-11T16:00:00.983Z,55.66
2018-06-11T16:02:29.856Z,55.62
2018-06-11T16:04:58.439Z,55.12
2018-06-11T16:07:26.934Z,55.51
2018-06-11T16:09:55.434Z,55.11
2018-06-11T16:12:23.962Z,54.71
2018-06-11T16:14:52.455Z,55.56
2018-06-11T16:17:21.167Z,56.46
2018-06-11T16:19:49.672Z,56.86
2018-06-11T16:22:18.154Z,55.56
2018-06-11T16:24:46.678Z,56.20
2018-06-11T16:27:15.170Z,55.69
2018-06-11T16:29:43.944Z,55.58
2018-06-11T16:32:12.449Z,55.44
2018-06-11T16:34:40.961Z,55.74
2018-06-11T16:37:09.603Z,54.48
2018-06-11T16:39:38.140Z,54.45
2018-06-11T16:42:06.734Z,54.15
2018-06-11T16:44:35.369Z,55.27
2018-06-11T16:47:03.885Z,53.92
2018-06-11T16:49:32.382Z,54.25
2018-06-11T16:52:00.944Z,54.95
2018-06-11T16:54:29.462Z,54.93
2018-06-11T16:56:58.038Z,55.80
2018-06-11T16:59:26.666Z,55.68
2018-06-11T17:01:55.186Z,56.13
2018-06-11T17:04:23.707Z,56.02
2018-06-11T17:06:52.245Z,57.25
2018-06-11T17:09:20.802Z,57.86
2018-06-11T17:11:49.293Z,57.42
2018-06-11T17:14:17.786Z,57.87
2018-06-11T17:19:27.903Z,58.48
2018-06-11T17:21:56.418Z,59.08
2018-06-11T17:24:24.940Z,59.05
2018-06-11T17:26:53.469Z,60.29
2018-06-11T17:29:22.474Z,60.45
2018-06-11T17:31:50.967Z,60.87
2018-06-11T17:34:19.483Z,60.18
2018-06-11T17:36:47.999Z,61.03
2018-06-11T17:39:16.594Z,60.54
2018-06-11T17:41:45.115Z,60.06
2018-06-11T17:44:13.659Z,60.52
2018-06-11T17:46:42.154Z,60.67
2018-06-11T17:49:10.684Z,60.47
2018-06-11T17:51:39.743Z,60.04
2018-06-11T17:54:08.257Z,59.92
2018-06-11T17:56:36.765Z,59.83
2018-06-11T17:59:05.317Z,59.95
2018-06-11T18:01:34.027Z,60.91
2018-06-11T18:04:02.578Z,61.22
2018-06-11T18:06:31.247Z,61.27
2018-06-11T18:08:59.811Z,61.98
2018-06-11T18:11:28.330Z,62.32
2018-06-11T18:13:56.895Z,62.90
2018-06-11T18:16:25.406Z,62.85
2018-06-11T18:18:53.944Z,62.99
2018-06-11T18:21:22.479Z,63.94
2018-06-11T18:23:50.970Z,63.96
2018-06-11T18:26:19.802Z,64.31
2018-06-11T18:28:48.309Z,63.82
2018-06-11T18:31:16.793Z,63.89
2018-06-11T18:33:45.347Z,64.68
2018-06-11T18:36:14.752Z,65.39
2018-06-11T18:38:43.490Z,66.38
2018-06-11T18:41:12.030Z,66.22
2018-06-11T18:43:40.626Z,66.36
2018-06-11T18:46:09.179Z,67.11
2018-06-11T18:48:37.722Z,66.75
2018-06-11T18:51:06.246Z,66.78
2018-06-11T18:53:35.147Z,67.61
2018-06-11T18:56:03.697Z,67.42
2018-06-11T18:58:32.194Z,67.10
2018-06-11T19:01:00.772Z,67.57
2018-06-11T19:03:29.266Z,65.92
2018-06-11T19:05:57.758Z,65.82
2018-06-11T19:08:26.306Z,65.75
2018-06-11T19:10:56.585Z,66.62
2018-06-11T19:13:25.817Z,67.37
2018-06-11T19:15:54.298Z,68.18
2018-06-11T19:18:22.822Z,66.93
2018-06-11T19:20:51.409Z,67.62
2018-06-11T19:23:19.898Z,67.60
2018-06-11T19:25:48.406Z,66.70
2018-06-11T19:28:16.977Z,67.87
2018-06-11T19:30:45.504Z,68.78
2018-06-11T19:33:14.119Z,68.84
2018-06-11T19:35:42.771Z,69.76
2018-06-11T19:38:11.358Z,70.21
2018-06-11T19:40:39.907Z,71.33
2018-06-11T19:43:08.831Z,71.99
2018-06-11T19:45:37.387Z,72.43
2018-06-11T19:48:06.191Z,72.68
2018-06-11T19:50:34.823Z,73.28
2018-06-11T19:53:03.420Z,73.28
2018-06-11T19:55:32.111Z,73.60
2018-06-11T19:58:00.599Z,73.56
2018-06-11T20:00:29.126Z,74.22
2018-06-11T20:02:57.731Z,74.20
2018-06-11T20:05:26.238Z,74.33
2018-06-11T20:07:54.722Z,74.73
2018-06-11T20:10:23.243Z,74.42
2018-06-11T20:12:51.750Z,74.75
2018-06-11T20:15:20.743Z,74.92
2018-06-11T20:17:49.247Z,74.77
2018-06-11T20:20:17.757Z,75.05
2018-06-11T20:22:46.639Z,75.54
2018-06-11T20:25:15.147Z,75.77
2018-06-11T20:27:43.629Z,75.48
2018-06-11T20:30:12.447Z,75.92
2018-06-11T20:32:40.966Z,75.76
2018-06-11T20:35:09.653Z,76.55
2018-06-11T20:37:38.311Z,76.23
2018-06-11T20:40:06.893Z,76.30
2018-06-11T20:42:35.382Z,76.61
2018-06-11T20:45:04.417Z,76.85
2018-06-11T20:47:32.956Z,76.54
2018-06-11T20:50:01.451Z,76.72
2018-06-11T20:52:30.034Z,77.03
2018-06-11T20:54:58.535Z,76.98
2018-06-11T20:57:27.656Z,77.17
2018-06-11T20:59:56.173Z,77.29
2018-06-11T21:02:24.715Z,77.25
2018-06-11T21:04:53.244Z,77.51
2018-06-11T21:07:21.754Z,77.64
2018-06-11T21:09:50.333Z,77.82
2018-06-11T21:12:18.878Z,77.98
2018-06-11T21:14:47.379Z,78.02
2018-06-11T21:17:15.891Z,78.34
2018-06-11T21:19:44.905Z,78.38
2018-06-11T21:22:13.567Z,78.60
2018-06-11T21:24:42.127Z,78.61
2018-06-11T21:27:10.647Z,78.84
2018-06-11T21:29:39.167Z,78.99
2018-06-11T21:32:08.117Z,79.14
2018-06-11T21:34:36.622Z,79.25
2018-06-11T21:37:05.315Z,79.55
2018-06-11T21:39:33.839Z,79.81
2018-06-11T21:42:02.411Z,79.62
2018-06-11T21:44:32.295Z,79.67
2018-06-11T21:47:01.232Z,80.08
2018-06-11T21:49:30.099Z,79.50
2018-06-11T21:51:58.642Z,79.66
2018-06-11T21:54:27.174Z,79.36
2018-06-11T21:56:55.714Z,79.50
2018-06-11T21:59:24.261Z,79.44
2018-06-11T22:01:52.821Z,79.28
2018-06-11T22:04:21.395Z,79.38
2018-06-11T22:06:49.962Z,78.96
2018-06-11T22:09:18.501Z,79.15
2018-06-11T22:11:47.026Z,79.31
2018-06-11T22:14:16.782Z,79.42
2018-06-11T22:16:45.338Z,79.44
2018-06-11T22:19:13.870Z,79.68
2018-06-11T22:21:42.409Z,79.72
2018-06-11T22:24:11.391Z,79.43
2018-06-11T22:26:39.925Z,79.30
2018-06-11T22:29:08.494Z,79.32
2018-06-11T22:31:37.187Z,78.61
2018-06-11T22:34:05.749Z,78.64
2018-06-11T22:36:34.269Z,78.53
2018-06-11T22:39:02.938Z,78.37
2018-06-11T22:41:31.523Z,77.99
2018-06-11T22:44:00.019Z,78.32
2018-06-11T22:46:28.529Z,77.74
2018-06-11T22:48:57.470Z,77.98
2018-06-11T22:51:25.965Z,77.42
2018-06-11T22:53:54.582Z,77.80
2018-06-11T22:56:23.131Z,77.37
2018-06-11T22:58:51.713Z,77.49
2018-06-11T23:01:20.411Z,77.39
2018-06-11T23:03:48.922Z,77.19
2018-06-11T23:06:17.470Z,77.08
2018-06-11T23:08:45.983Z,77.35
2018-06-11T23:11:14.511Z,77.01
2018-06-11T23:13:43.467Z,76.80
2018-06-11T23:16:12.019Z,77.28
2018-06-11T23:18:40.543Z,77.01
2018-06-11T23:21:09.540Z,76.71
2018-06-11T23:23:38.104Z,76.65
2018-06-11T23:26:06.643Z,76.65
2018-06-11T23:28:35.202Z,76.38
2018-06-11T23:31:03.731Z,76.36
2018-06-11T23:33:32.790Z,76.10
2018-06-11T23:36:01.334Z,76.17
2018-06-11T23:38:29.859Z,76.26
2018-06-11T23:40:58.398Z,76.44
2018-06-11T23:43:26.902Z,76.51
2018-06-11T23:45:55.426Z,76.36
2018-06-11T23:48:23.960Z,76.84
2018-06-11T23:50:52.514Z,76.41
2018-06-11T23:53:21.019Z,76.16
2018-06-11T23:55:49.545Z,76.17
2018-06-11T23:58:18.242Z,76.63
